sensor_id;sensor_type;location;lat;lon;timestamp;P1;durP1;ratioP1;P2;durP2;ratioP2
6862;SDS011;3470;48.738;9.616;2023-05-15T00:01:53;14.43;;;12.70;;
6862;SDS011;3470;48.738;9.616;2023-05-15T00:04:19;14.03;;;12.30;;
6862;SDS011;3470;48.738;9.616;2023-05-15T00:06:44;15.00;;;13.40;;
6862;SDS011;3470;48.738;9.616;2023-05-15T00:09:10;15.60;;;12.83;;
6862;SDS011;3470;48.738;9.616;2023-05-15T00:11:36;12.93;;;11.63;;
6862;SDS011;3470;48.738;9.616;2023-05-15T00:14:01;16.10;;;13.57;;
6862;SDS011;3470;48.738;9.616;2023-05-15T00:16:27;17.30;;;13.43;;
6862;SDS011;3470;48.738;9.616;2023-05-15T00:18:53;13.87;;;12.33;;
6862;SDS011;3470;48.738;9.616;2023-05-15T00:21:18;14.83;;;12.60;;
6862;SDS011;3470;48.738;9.616;2023-05-15T00:23:44;16.27;;;13.53;;
6862;SDS011;3470;48.738;9.616;2023-05-15T00:26:11;15.13;;;13.30;;
6862;SDS011;3470;48.738;9.616;2023-05-15T00:28:39;15.37;;;13.00;;
6862;SDS011;3470;48.738;9.616;2023-05-15T00:31:05;18.03;;;14.27;;
6862;SDS011;3470;48.738;9.616;2023-05-15T00:33:32;16.33;;;14.23;;
6862;SDS011;3470;48.738;9.616;2023-05-15T00:35:58;15.17;;;13.57;;
6862;SDS011;3470;48.738;9.616;2023-05-15T00:38:23;15.23;;;13.67;;
6862;SDS011;3470;48.738;9.616;2023-05-15T00:40:49;15.43;;;13.87;;
6862;SDS011;3470;48.738;9.616;2023-05-15T00:43:16;15.57;;;13.90;;
6862;SDS011;3470;48.738;9.616;2023-05-15T00:45:42;16.27;;;14.57;;
6862;SDS011;3470;48.738;9.616;2023-05-15T00:48:09;16.73;;;15.00;;
6862;SDS011;3470;48.738;9.616;2023-05-15T00:50:35;17.73;;;14.67;;
6862;SDS011;3470;48.738;9.616;2023-05-15T00:53:02;16.80;;;14.93;;
6862;SDS011;3470;48.738;9.616;2023-05-15T00:55:27;17.93;;;14.97;;
6862;SDS011;3470;48.738;9.616;2023-05-15T00:57:53;17.73;;;15.13;;
6862;SDS011;3470;48.738;9.616;2023-05-15T01:00:21;20.57;;;16.97;;
6862;SDS011;3470;48.738;9.616;2023-05-15T01:02:48;20.50;;;17.03;;
6862;SDS011;3470;48.738;9.616;2023-05-15T17:06:19;2.92;;;2.72;;
6862;SDS011;3470;48.738;9.616;2023-05-15T17:08:45;2.90;;;2.70;;
6862;SDS011;3470;48.738;9.616;2023-05-15T17:11:11;3.05;;;2.85;;
6862;SDS011;3470;48.738;9.616;2023-05-15T17:13:37;3.25;;;2.90;;
6862;SDS011;3470;48.738;9.616;2023-05-15T17:16:03;3.85;;;2.90;;
6862;SDS011;3470;48.738;9.616;2023-05-15T17:18:29;2.88;;;2.67;;
6862;SDS011;3470;48.738;9.616;2023-05-15T17:20:54;3.00;;;2.70;;
6862;SDS011;3470;48.738;9.616;2023-05-15T17:23:20;2.45;;;2.25;;
6862;SDS011;3470;48.738;9.616;2023-05-15T17:25:45;2.60;;;2.40;;
6862;SDS011;3470;48.738;9.616;2023-05-15T17:28:11;3.22;;;2.60;;
6862;SDS011;3470;48.738;9.616;2023-05-15T17:30:37;3.53;;;2.60;;
6862;SDS011;3470;48.738;9.616;2023-05-15T17:33:02;3.20;;;2.63;;
6862;SDS011;3470;48.738;9.616;2023-05-15T17:35:28;3.05;;;2.85;;
6862;SDS011;3470;48.738;9.616;2023-05-15T17:37:53;3.30;;;3.00;;
6862;SDS011;3470;48.738;9.616;2023-05-15T17:40:19;3.33;;;3.03;;
6862;SDS011;3470;48.738;9.616;2023-05-15T17:42:44;3.75;;;3.40;;
6862;SDS011;3470;48.738;9.616;2023-05-15T17:45:10;4.00;;;3.60;;
6862;SDS011;3470;48.738;9.616;2023-05-15T17:47:36;3.50;;;3.20;;
6862;SDS011;3470;48.738;9.616;2023-05-15T17:50:01;5.30;;;3.30;;
6862;SDS011;3470;48.738;9.616;2023-05-15T17:52:27;3.28;;;2.97;;
6862;SDS011;3470;48.738;9.616;2023-05-15T17:54:53;4.07;;;2.70;;
6862;SDS011;3470;48.738;9.616;2023-05-15T17:57:18;5.50;;;2.85;;
6862;SDS011;3470;48.738;9.616;2023-05-15T17:59:44;3.75;;;3.22;;
6862;SDS011;3470;48.738;9.616;2023-05-15T18:02:09;3.88;;;3.47;;
6862;SDS011;3470;48.738;9.616;2023-05-15T18:04:35;4.07;;;3.67;;
6862;SDS011;3470;48.738;9.616;2023-05-15T18:07:00;4.22;;;3.60;;
6862;SDS011;3470;48.738;9.616;2023-05-15T18:09:26;4.63;;;4.10;;
6862;SDS011;3470;48.738;9.616;2023-05-15T18:11:55;5.32;;;4.20;;
6862;SDS011;3470;48.738;9.616;2023-05-15T18:14:20;4.88;;;4.20;;
6862;SDS011;3470;48.738;9.616;2023-05-15T18:16:46;6.22;;;4.97;;
6862;SDS011;3470;48.738;9.616;2023-05-15T18:19:11;4.60;;;4.20;;
6862;SDS011;3470;48.738;9.616;2023-05-15T18:21:37;5.25;;;4.10;;
6862;SDS011;3470;48.738;9.616;2023-05-15T18:24:03;5.00;;;4.45;;
6862;SDS011;3470;48.738;9.616;2023-05-15T18:26:28;5.82;;;5.15;;
6862;SDS011;3470;48.738;9.616;2023-05-15T18:28:55;5.30;;;4.80;;
6862;SDS011;3470;48.738;9.616;2023-05-15T18:31:20;5.77;;;5.23;;
6862;SDS011;3470;48.738;9.616;2023-05-15T18:33:46;7.43;;;5.33;;
6862;SDS011;3470;48.738;9.616;2023-05-15T18:36:12;7.33;;;5.63;;
6862;SDS011;3470;48.738;9.616;2023-05-15T18:38:38;6.33;;;5.73;;
6862;SDS011;3470;48.738;9.616;2023-05-15T18:41:04;6.73;;;5.57;;
6862;SDS011;3470;48.738;9.616;2023-05-15T18:43:29;6.73;;;5.67;;
6862;SDS011;3470;48.738;9.616;2023-05-15T18:45:58;7.00;;;5.70;;
6862;SDS011;3470;48.738;9.616;2023-05-15T18:48:24;7.00;;;6.30;;
6862;SDS011;3470;48.738;9.616;2023-05-15T18:50:50;7.33;;;6.63;;
6862;SDS011;3470;48.738;9.616;2023-05-15T18:53:16;5.90;;;5.30;;
6862;SDS011;3470;48.738;9.616;2023-05-15T18:55:42;5.97;;;5.37;;
6862;SDS011;3470;48.738;9.616;2023-05-15T18:58:08;6.20;;;5.60;;
6862;SDS011;3470;48.738;9.616;2023-05-15T19:00:33;6.23;;;5.40;;
6862;SDS011;3470;48.738;9.616;2023-05-15T19:02:59;8.43;;;5.40;;
6862;SDS011;3470;48.738;9.616;2023-05-15T19:05:25;6.43;;;5.83;;
6862;SDS011;3470;48.738;9.616;2023-05-15T19:07:51;7.07;;;5.80;;
6862;SDS011;3470;48.738;9.616;2023-05-15T19:10:17;6.37;;;5.20;;
6862;SDS011;3470;48.738;9.616;2023-05-15T19:12:42;5.80;;;5.20;;
6862;SDS011;3470;48.738;9.616;2023-05-15T19:15:09;6.17;;;5.57;;
6862;SDS011;3470;48.738;9.616;2023-05-15T19:17:37;7.17;;;5.53;;
6862;SDS011;3470;48.738;9.616;2023-05-15T19:20:04;5.67;;;5.17;;
6862;SDS011;3470;48.738;9.616;2023-05-15T19:22:31;5.93;;;5.33;;
6862;SDS011;3470;48.738;9.616;2023-05-15T19:24:57;6.47;;;5.77;;
6862;SDS011;3470;48.738;9.616;2023-05-15T19:27:22;8.00;;;6.50;;
6862;SDS011;3470;48.738;9.616;2023-05-15T19:29:48;6.90;;;6.20;;
6862;SDS011;3470;48.738;9.616;2023-05-15T19:35:07;8.33;;;6.47;;
6862;SDS011;3470;48.738;9.616;2023-05-15T19:37:33;7.00;;;6.30;;
6862;SDS011;3470;48.738;9.616;2023-05-15T19:39:58;7.73;;;6.97;;
6862;SDS011;3470;48.738;9.616;2023-05-15T19:42:24;7.23;;;6.53;;
6862;SDS011;3470;48.738;9.616;2023-05-15T19:44:50;7.80;;;6.50;;
6862;SDS011;3470;48.738;9.616;2023-05-15T19:47:15;8.03;;;7.23;;
6862;SDS011;3470;48.738;9.616;2023-05-15T19:49:41;7.80;;;7.00;;
6862;SDS011;3470;48.738;9.616;2023-05-15T19:52:06;8.33;;;7.53;;
6862;SDS011;3470;48.738;9.616;2023-05-15T19:54:32;8.43;;;7.47;;
6862;SDS011;3470;48.738;9.616;2023-05-15T19:56:58;9.50;;;8.60;;
6862;SDS011;3470;48.738;9.616;2023-05-15T19:59:26;9.47;;;8.03;;
6862;SDS011;3470;48.738;9.616;2023-05-15T20:01:52;9.20;;;8.30;;
6862;SDS011;3470;48.738;9.616;2023-05-15T20:04:18;8.83;;;7.80;;
6862;SDS011;3470;48.738;9.616;2023-05-15T20:06:44;8.90;;;8.00;;
6862;SDS011;3470;48.738;9.616;2023-05-15T20:09:10;8.63;;;7.70;;
6862;SDS011;3470;48.738;9.616;2023-05-15T20:11:35;9.40;;;8.33;;
6862;SDS011;3470;48.738;9.616;2023-05-15T20:14:04;8.37;;;7.50;;
6862;SDS011;3470;48.738;9.616;2023-05-15T20:16:30;8.30;;;7.43;;
6862;SDS011;3470;48.738;9.616;2023-05-15T20:18:55;8.30;;;7.50;;
6862;SDS011;3470;48.738;9.616;2023-05-15T20:21:21;8.63;;;7.83;;
6862;SDS011;3470;48.738;9.616;2023-05-15T20:23:46;8.40;;;7.60;;
6862;SDS011;3470;48.738;9.616;2023-05-15T20:26:13;8.63;;;7.83;;
6862;SDS011;3470;48.738;9.616;2023-05-15T20:28:38;8.80;;;7.90;;
6862;SDS011;3470;48.738;9.616;2023-05-15T20:31:04;10.37;;;8.63;;
6862;SDS011;3470;48.738;9.616;2023-05-15T20:33:29;10.37;;;8.63;;
6862;SDS011;3470;48.738;9.616;2023-05-15T20:35:55;9.37;;;7.97;;
6862;SDS011;3470;48.738;9.616;2023-05-15T20:38:21;8.63;;;7.83;;
6862;SDS011;3470;48.738;9.616;2023-05-15T20:40:49;9.43;;;7.97;;
6862;SDS011;3470;48.738;9.616;2023-05-15T20:43:15;9.17;;;8.37;;
6862;SDS011;3470;48.738;9.616;2023-05-15T20:45:40;10.13;;;9.13;;
6862;SDS011;3470;48.738;9.616;2023-05-15T20:48:06;11.13;;;9.30;;
6862;SDS011;3470;48.738;9.616;2023-05-15T20:50:32;10.80;;;9.70;;
6862;SDS011;3470;48.738;9.616;2023-05-15T20:52:58;11.10;;;9.97;;
6862;SDS011;3470;48.738;9.616;2023-05-15T20:55:23;10.80;;;9.60;;
6862;SDS011;3470;48.738;9.616;2023-05-15T20:57:49;10.97;;;9.87;;
6862;SDS011;3470;48.738;9.616;2023-05-15T21:00:15;11.47;;;9.60;;
6862;SDS011;3470;48.738;9.616;2023-05-15T21:02:42;9.70;;;8.70;;
6862;SDS011;3470;48.738;9.616;2023-05-15T21:05:09;10.47;;;9.37;;
6862;SDS011;3470;48.738;9.616;2023-05-15T21:07:35;10.03;;;9.13;;
6862;SDS011;3470;48.738;9.616;2023-05-15T21:10:01;10.33;;;9.33;;
6862;SDS011;3470;48.738;9.616;2023-05-15T21:12:27;10.30;;;8.87;;
6862;SDS011;3470;48.738;9.616;2023-05-15T21:14:52;10.57;;;9.47;;
6862;SDS011;3470;48.738;9.616;2023-05-15T21:17:18;10.03;;;9.03;;
6862;SDS011;3470;48.738;9.616;2023-05-15T21:19:44;10.20;;;9.20;;
6862;SDS011;3470;48.738;9.616;2023-05-15T21:22:12;9.87;;;8.87;;
6862;SDS011;3470;48.738;9.616;2023-05-15T21:24:38;9.77;;;8.80;;
6862;SDS011;3470;48.738;9.616;2023-05-15T21:27:04;9.83;;;8.93;;
6862;SDS011;3470;48.738;9.616;2023-05-15T21:29:30;10.50;;;8.53;;
6862;SDS011;3470;48.738;9.616;2023-05-15T21:31:55;9.30;;;8.30;;
6862;SDS011;3470;48.738;9.616;2023-05-15T21:34:21;9.10;;;8.20;;
6862;SDS011;3470;48.738;9.616;2023-05-15T21:36:46;9.47;;;8.57;;
6862;SDS011;3470;48.738;9.616;2023-05-15T21:39:12;9.67;;;8.67;;
6862;SDS011;3470;48.738;9.616;2023-05-15T21:41:39;9.77;;;8.60;;
6862;SDS011;3470;48.738;9.616;2023-05-15T21:44:04;10.10;;;8.40;;
6862;SDS011;3470;48.738;9.616;2023-05-15T21:46:30;9.20;;;8.27;;
6862;SDS011;3470;48.738;9.616;2023-05-15T21:48:56;11.10;;;9.90;;
6862;SDS011;3470;48.738;9.616;2023-05-15T21:51:23;11.40;;;10.20;;
6862;SDS011;3470;48.738;9.616;2023-05-15T21:53:48;11.53;;;10.33;;
6862;SDS011;3470;48.738;9.616;2023-05-15T21:56:16;11.53;;;10.33;;
6862;SDS011;3470;48.738;9.616;2023-05-15T21:58:42;13.10;;;11.53;;
6862;SDS011;3470;48.738;9.616;2023-05-15T22:01:08;13.40;;;12.03;;
6862;SDS011;3470;48.738;9.616;2023-05-15T22:03:33;13.23;;;11.10;;
6862;SDS011;3470;48.738;9.616;2023-05-15T22:05:59;13.30;;;11.30;;
6862;SDS011;3470;48.738;9.616;2023-05-15T22:08:25;12.80;;;11.50;;
6862;SDS011;3470;48.738;9.616;2023-05-15T22:10:51;13.67;;;11.47;;
6862;SDS011;3470;48.738;9.616;2023-05-15T22:13:17;14.33;;;12.83;;
6862;SDS011;3470;48.738;9.616;2023-05-15T22:15:43;13.00;;;11.73;;
6862;SDS011;3470;48.738;9.616;2023-05-15T22:18:08;13.50;;;12.13;;
6862;SDS011;3470;48.738;9.616;2023-05-15T22:20:34;12.37;;;11.17;;
6862;SDS011;3470;48.738;9.616;2023-05-15T22:23:00;15.27;;;13.27;;
6862;SDS011;3470;48.738;9.616;2023-05-15T22:25:25;18.37;;;12.53;;
6862;SDS011;3470;48.738;9.616;2023-05-15T22:27:51;13.53;;;12.07;;
6862;SDS011;3470;48.738;9.616;2023-05-15T22:30:16;12.47;;;11.27;;
6862;SDS011;3470;48.738;9.616;2023-05-15T22:32:42;11.27;;;10.07;;
6862;SDS011;3470;48.738;9.616;2023-05-15T22:35:08;11.50;;;10.40;;
6862;SDS011;3470;48.738;9.616;2023-05-15T22:37:34;12.33;;;11.13;;
6862;SDS011;3470;48.738;9.616;2023-05-15T22:40:00;11.80;;;10.50;;
6862;SDS011;3470;48.738;9.616;2023-05-15T22:42:26;12.07;;;10.73;;
6862;SDS011;3470;48.738;9.616;2023-05-15T22:44:52;12.23;;;11.03;;
6862;SDS011;3470;48.738;9.616;2023-05-15T22:47:22;13.50;;;11.57;;
6862;SDS011;3470;48.738;9.616;2023-05-15T22:49:48;13.40;;;11.33;;
6862;SDS011;3470;48.738;9.616;2023-05-15T22:52:15;14.53;;;13.07;;
6862;SDS011;3470;48.738;9.616;2023-05-15T22:54:42;12.83;;;11.53;;
6862;SDS011;3470;48.738;9.616;2023-05-15T22:57:07;14.87;;;12.50;;
6862;SDS011;3470;48.738;9.616;2023-05-15T22:59:33;14.10;;;12.70;;
6862;SDS011;3470;48.738;9.616;2023-05-15T23:01:58;17.20;;;14.47;;
6862;SDS011;3470;48.738;9.616;2023-05-15T23:04:24;15.77;;;13.93;;
6862;SDS011;3470;48.738;9.616;2023-05-15T23:06:50;15.60;;;13.10;;
6862;SDS011;3470;48.738;9.616;2023-05-15T23:09:15;15.20;;;13.60;;
6862;SDS011;3470;48.738;9.616;2023-05-15T23:11:41;15.90;;;14.20;;
6862;SDS011;3470;48.738;9.616;2023-05-15T23:14:06;15.67;;;14.07;;
6862;SDS011;3470;48.738;9.616;2023-05-15T23:16:33;15.87;;;14.20;;
6862;SDS011;3470;48.738;9.616;2023-05-15T23:18:59;18.17;;;15.03;;
6862;SDS011;3470;48.738;9.616;2023-05-15T23:21:25;20.53;;;17.53;;
6862;SDS011;3470;48.738;9.616;2023-05-15T23:23:52;18.87;;;16.33;;
6862;SDS011;3470;48.738;9.616;2023-05-15T23:26:17;18.10;;;16.00;;
6862;SDS011;3470;48.738;9.616;2023-05-15T23:28:43;22.43;;;17.73;;
6862;SDS011;3470;48.738;9.616;2023-05-15T23:31:11;23.93;;;20.00;;
6862;SDS011;3470;48.738;9.616;2023-05-15T23:33:37;24.33;;;20.77;;
6862;SDS011;3470;48.738;9.616;2023-05-15T23:36:03;24.43;;;20.20;;
6862;SDS011;3470;48.738;9.616;2023-05-15T23:38:29;26.20;;;21.27;;
6862;SDS011;3470;48.738;9.616;2023-05-15T23:40:55;23.97;;;19.93;;
6862;SDS011;3470;48.738;9.616;2023-05-15T23:43:21;23.97;;;20.43;;
6862;SDS011;3470;48.738;9.616;2023-05-15T23:45:46;17.03;;;15.17;;
6862;SDS011;3470;48.738;9.616;2023-05-15T23:48:12;21.20;;;18.47;;
6862;SDS011;3470;48.738;9.616;2023-05-15T23:50:37;25.43;;;20.70;;
6862;SDS011;3470;48.738;9.616;2023-05-15T23:53:06;30.97;;;23.90;;
6862;SDS011;3470;48.738;9.616;2023-05-15T23:55:32;27.43;;;22.37;;
6862;SDS011;3470;48.738;9.616;2023-05-15T23:57:57;30.57;;;22.43;;
